Terminal Aerodrome Forecast
Issued by NWS Charleston, WV

Current Version | Previous Version | Text Only | Print | Product List | Glossary Off
Versions: 1 2 3 4 5 6 7 8 9 10 11 12 13 14 15 16 17 18 19 20 21

000
FTUS41 KRLX 211100
TAFBKW
TAF
KBKW 211125Z 2112/2212 15007KT P6SM SCT250
     FM211700 13005KT P6SM SCT025
     FM211800 13005KT P6SM SCT025 BKN035
     FM212300 13005KT P6SM BKN035
     FM220200 13006KT P6SM BKN250=

USA.gov is the U.S. government's official web portal to all federal, state and local government web resources and services.